Time;durP1;ratioP1;P1;durP2;ratioP2;P2;SDS_P1;SDS_P2;PMS_P1;PMS_P2;Temp;Humidity;BMP_temperature;BMP_pressure;BME280_temperature;BME280_humidity;BME280_pressure;Samples;Min_cycle;Max_cycle;Signal;HPM_P1;HPM_P2
2022/04/14 00:00:17;;;;;;;21.87;14.35;;;;;;;5.66;51.04;99992.34;1776525;78;20991;-60
2022/04/14 00:02:45;;;;;;;22.02;14.13;;;;;;;5.69;51.12;99995.73;1773436;78;20963;-60
2022/04/14 00:05:12;;;;;;;19.12;13.30;;;;;;;5.72;51.20;99998.25;1756859;80;21495;-60
2022/04/14 00:07:39;;;;;;;20.62;13.80;;;;;;;5.79;51.28;99995.06;1793248;77;21026;-60
2022/04/14 00:10:07;;;;;;;22.20;14.38;;;;;;;5.84;51.28;99988.05;1758011;80;21007;-60
2022/04/14 00:12:33;;;;;;;21.52;13.20;;;;;;;5.88;51.25;99987.09;1794598;78;20973;-61
2022/04/14 00:15:01;;;;;;;23.43;14.23;;;;;;;5.90;51.25;99985.75;1756708;80;21774;-60
2022/04/14 00:17:29;;;;;;;19.42;12.95;;;;;;;5.93;51.35;99986.55;1797197;78;21058;-60
2022/04/14 00:19:55;;;;;;;19.17;12.58;;;;;;;5.97;51.37;99992.09;1763483;80;20969;-60
2022/04/14 00:22:22;;;;;;;16.77;12.75;;;;;;;5.99;51.38;99989.02;1796960;78;21570;-61
2022/04/14 00:24:48;;;;;;;18.07;12.30;;;;;;;6.04;51.40;99983.70;1766220;80;21046;-61
2022/04/14 00:27:18;;;;;;;18.87;12.77;;;;;;;6.06;51.44;99980.64;1778454;78;21855;-60
2022/04/14 00:29:46;;;;;;;23.95;13.13;;;;;;;6.13;51.52;99980.03;1763978;79;21027;-60
2022/04/14 00:32:13;;;;;;;20.60;11.63;;;;;;;6.20;51.52;99979.00;1790206;78;20993;-60
2022/04/14 00:34:39;;;;;;;19.02;12.03;;;;;;;6.27;51.57;99974.05;1789714;78;21645;-60
2022/04/14 00:37:07;;;;;;;17.60;12.20;;;;;;;6.35;51.55;99972.56;1762849;80;21060;-61
2022/04/14 00:39:33;;;;;;;19.85;11.15;;;;;;;6.42;51.59;99972.37;1793533;78;20991;-60
2022/04/14 00:42:00;;;;;;;18.67;11.90;;;;;;;6.49;51.62;99973.89;1765053;80;21063;-61
2022/04/14 00:44:27;;;;;;;19.48;11.35;;;;;;;6.54;51.62;99968.59;1769444;79;21035;-60
2022/04/14 00:46:54;;;;;;;17.57;10.80;;;;;;;6.56;51.55;99968.56;1772494;78;21001;-60
2022/04/14 00:49:20;;;;;;;14.75;11.03;;;;;;;6.57;51.63;99968.96;1772740;79;20998;-60
2022/04/14 00:51:47;;;;;;;22.60;11.00;;;;;;;6.59;51.68;99965.89;1768058;80;21042;-60
2022/04/14 00:54:14;;;;;;;16.27;10.63;;;;;;;6.65;51.73;99963.12;1768668;79;21007;-60
2022/04/14 00:56:40;;;;;;;14.43;10.48;;;;;;;6.67;51.72;99957.45;1767846;79;21532;-60
2022/04/14 00:59:07;;;;;;;17.90;11.57;;;;;;;6.69;51.74;99958.23;1776241;79;21580;-61
2022/04/14 01:01:33;;;;;;;17.82;10.32;;;;;;;6.71;51.76;99961.65;1768748;79;21031;-60
2022/04/14 01:04:02;;;;;;;16.50;10.75;;;;;;;6.77;51.81;99949.80;1779566;79;21083;-60
2022/04/14 01:06:29;;;;;;;14.45;10.28;;;;;;;6.83;51.78;99948.31;1773613;78;21036;-60
2022/04/14 01:11:43;;;;;;;17.42;10.98;;;;;;;6.91;51.83;99947.66;1763563;79;21715;-60
2022/04/14 01:14:28;;;;;;;16.20;9.90;;;;;;;6.94;51.87;99946.27;1768669;79;21635;-60
2022/04/14 01:17:03;;;;;;;15.20;9.68;;;;;;;6.99;51.87;99946.14;1764378;79;21121;-60
2022/04/14 01:19:30;;;;;;;14.85;10.43;;;;;;;7.04;51.91;99942.13;1772673;80;20906;-60
2022/04/14 01:22:18;;;;;;;14.90;10.72;;;;;;;7.09;51.94;99940.25;1765571;80;20968;-60
2022/04/14 01:24:45;;;;;;;19.17;11.05;;;;;;;7.13;51.91;99934.06;1766165;80;21590;-60
2022/04/14 01:27:11;;;;;;;19.87;11.88;;;;;;;7.15;51.97;99934.42;1771698;79;20985;-60
2022/04/14 01:29:38;;;;;;;15.23;10.43;;;;;;;7.16;51.98;99926.17;1767406;79;21032;-60
2022/04/14 01:32:07;;;;;;;17.13;10.47;;;;;;;7.19;52.01;99929.97;1767566;78;21997;-60
2022/04/14 01:34:34;;;;;;;16.82;10.98;;;;;;;7.22;52.00;99925.98;1770461;79;21580;-60
2022/04/14 01:37:01;;;;;;;21.70;10.95;;;;;;;7.21;51.98;99917.80;1767262;80;21108;-60
2022/04/14 01:39:29;;;;;;;16.52;11.10;;;;;;;7.22;52.01;99910.40;1779831;80;20927;-60
2022/04/14 01:41:56;;;;;;;19.25;11.10;;;;;;;7.24;52.00;99908.62;1762403;79;21498;-60
2022/04/14 01:44:23;;;;;;;17.42;10.50;;;;;;;7.26;52.02;99909.42;1758231;80;21003;-60
2022/04/14 01:46:49;;;;;;;15.23;10.15;;;;;;;7.25;52.03;99897.31;1766163;80;21007;-60
2022/04/14 01:49:16;;;;;;;19.67;11.22;;;;;;;7.28;52.03;99896.38;1761774;80;21814;-60
2022/04/14 01:51:42;;;;;;;20.10;10.77;;;;;;;7.28;52.09;99894.66;1762862;80;21148;-60
2022/04/14 01:54:09;;;;;;;17.42;10.68;;;;;;;7.29;52.10;99895.05;1765472;80;22047;-60
2022/04/14 01:56:36;;;;;;;14.38;9.63;;;;;;;7.29;52.11;99897.64;1770775;79;21045;-60
2022/04/14 01:59:03;;;;;;;15.90;11.12;;;;;;;7.29;52.11;99898.94;1767393;79;21483;-60
2022/04/14 02:01:29;;;;;;;15.87;10.90;;;;;;;7.31;52.11;99893.26;1768076;80;20954;-60
2022/04/14 02:03:58;;;;;;;14.43;10.15;;;;;;;7.33;52.10;99897.94;1762632;80;21120;-61
2022/04/14 02:06:25;;;;;;;15.23;9.78;;;;;;;7.35;52.12;99893.55;1758966;80;22069;-60
2022/04/14 02:08:52;;;;;;;14.70;10.23;;;;;;;7.39;52.12;99892.57;1757265;80;20999;-61
2022/04/14 02:11:18;;;;;;;15.65;10.65;;;;;;;7.43;52.15;99888.58;1769157;80;20981;-61
2022/04/14 02:13:45;;;;;;;21.02;10.82;;;;;;;7.45;52.14;99888.05;1767927;80;21001;-60
2022/04/14 02:16:12;;;;;;;15.43;10.43;;;;;;;7.45;52.07;99881.14;1767709;79;22338;-61
2022/04/14 02:18:38;;;;;;;14.93;10.10;;;;;;;7.48;52.12;99880.16;1762358;79;21433;-60
2022/04/14 02:21:05;;;;;;;13.67;10.10;;;;;;;7.49;52.12;99888.38;1762551;80;21145;-60
2022/04/14 02:23:32;;;;;;;15.93;9.53;;;;;;;7.51;52.25;99885.28;1769493;80;20941;-60
2022/04/14 02:25:59;;;;;;;14.85;10.13;;;;;;;7.51;52.08;99880.09;1770577;80;21050;-60
2022/04/14 02:28:25;;;;;;;15.50;10.90;;;;;;;7.52;52.08;99888.27;1766654;80;22271;-61
2022/04/14 02:30:52;;;;;;;16.03;9.90;;;;;;;7.52;52.06;99876.58;1763894;79;21102;-60
2022/04/14 02:33:19;;;;;;;14.15;9.48;;;;;;;7.51;52.05;99886.58;1760297;80;21022;-60
2022/04/14 02:35:46;;;;;;;17.17;9.28;;;;;;;7.50;52.01;99878.37;1763045;80;21002;-61
2022/04/14 02:38:13;;;;;;;14.00;9.00;;;;;;;7.49;52.02;99879.28;1768874;79;21005;-61
2022/04/14 02:40:40;;;;;;;14.30;8.63;;;;;;;7.47;51.97;99878.47;1767095;79;21582;-61
2022/04/14 02:43:07;;;;;;;14.13;9.43;;;;;;;7.44;51.93;99874.22;1769657;80;21651;-61
2022/04/14 02:45:33;;;;;;;15.30;8.75;;;;;;;7.47;51.97;99873.27;1767662;80;21054;-60
2022/04/14 02:48:00;;;;;;;15.13;9.08;;;;;;;7.47;51.92;99878.47;1762391;80;21543;-60
2022/04/14 02:50:27;;;;;;;15.50;9.28;;;;;;;7.46;51.94;99876.78;1764099;80;20926;-60
2022/04/14 02:52:54;;;;;;;17.95;9.70;;;;;;;7.48;51.90;99880.16;1765836;79;21055;-60
2022/04/14 02:55:22;;;;;;;32.30;10.80;;;;;;;7.47;51.89;99888.86;1770039;80;21605;-61
2022/04/14 02:57:49;;;;;;;16.23;11.22;;;;;;;7.45;51.85;99893.25;1764477;79;21715;-61
2022/04/14 03:00:17;;;;;;;;;;;;;;;7.43;51.82;99882.08;1785923;79;21152;-60
2022/04/14 03:02:44;;;;;;;21.20;11.22;;;;;;;7.40;51.82;99883.87;1765603;80;20216;-60
2022/04/14 03:05:11;;;;;;;23.62;16.32;;;;;;;7.35;51.79;99885.75;1784566;79;20993;-60
2022/04/14 03:07:38;;;;;;;14.58;11.10;;;;;;;7.31;51.79;99878.97;1755177;80;27462;-60
2022/04/14 03:10:07;;;;;;;16.65;10.20;;;;;;;7.27;51.79;99885.14;1784737;80;21491;-60
2022/04/14 03:12:46;;;;;;;15.28;9.60;;;;;;;7.25;51.77;99887.38;1783867;79;21153;-60
2022/04/14 03:15:14;;;;;;;15.45;10.18;;;;;;;7.20;51.74;99875.86;1747550;80;21053;-61
2022/04/14 03:17:41;;;;;;;18.15;10.10;;;;;;;7.19;51.77;99880.63;1763097;80;20942;-60
2022/04/14 03:20:09;;;;;;;17.98;10.85;;;;;;;7.17;51.77;99883.75;1761667;79;21091;-60
2022/04/14 03:22:36;;;;;;;21.05;11.43;;;;;;;7.12;51.71;99875.24;1789204;79;20958;-60
2022/04/14 03:25:09;;;;;;;17.70;11.40;;;;;;;7.07;51.71;99866.73;1777438;80;21307;-60
2022/04/14 03:27:37;;;;;;;18.75;12.45;;;;;;;7.03;51.73;99862.52;1783771;78;21515;-60
2022/04/14 03:30:08;;;;;;;21.87;12.35;;;;;;;7.01;51.77;99853.95;1751590;80;21038;-60
2022/04/14 03:32:46;;;;;;;20.95;13.70;;;;;;;6.99;51.81;99850.55;1786507;79;21220;-61
2022/04/14 03:35:14;;;;;;;26.50;12.63;;;;;;;6.98;51.84;99847.10;1765434;80;20977;-59
2022/04/14 03:37:43;;;;;;;23.27;12.13;;;;;;;7.02;51.87;99846.55;1753796;80;21097;-61
2022/04/14 03:40:11;;;;;;;20.12;12.58;;;;;;;7.08;51.89;99842.46;1745823;80;21000;-60
2022/04/14 03:42:39;;;;;;;22.13;11.55;;;;;;;7.13;51.89;99844.47;1783605;78;20975;-61
2022/04/14 03:45:07;;;;;;;19.87;11.90;;;;;;;7.17;51.88;99844.80;1783833;80;21187;-61
2022/04/14 03:47:35;;;;;;;20.70;12.58;;;;;;;7.24;51.92;99842.84;1778862;78;21087;-60
2022/04/14 03:50:01;;;;;;;16.32;11.25;;;;;;;7.30;51.91;99825.30;1773822;79;21199;-61
2022/04/14 03:52:28;;;;;;;20.52;11.50;;;;;;;7.37;51.85;99826.82;1769413;79;20958;-60
2022/04/14 03:54:55;;;;;;;19.30;11.35;;;;;;;7.43;51.87;99819.73;1763370;80;21534;-61
2022/04/14 03:57:21;;;;;;;17.10;11.33;;;;;;;7.47;51.86;99826.51;1764466;79;22293;-60
2022/04/14 03:59:48;;;;;;;15.10;10.95;;;;;;;7.52;51.86;99833.71;1764876;79;21701;-61
2022/04/14 04:02:15;;;;;;;16.73;10.97;;;;;;;7.56;51.84;99830.97;1764224;79;21007;-60
2022/04/14 04:04:44;;;;;;;19.47;11.83;;;;;;;7.62;51.82;99824.72;1768117;78;20999;-60
2022/04/14 04:07:11;;;;;;;16.67;11.25;;;;;;;7.66;51.86;99825.00;1763305;79;20966;-60
2022/04/14 04:09:38;;;;;;;22.27;11.00;;;;;;;7.67;51.81;99822.79;1783322;80;22237;-60
2022/04/14 04:12:06;;;;;;;24.55;12.43;;;;;;;7.70;51.80;99820.54;1763562;80;21140;-60
2022/04/14 04:14:33;;;;;;;24.75;12.95;;;;;;;7.69;51.78;99822.30;1755462;80;21020;-60
2022/04/14 04:17:01;;;;;;;21.63;13.37;;;;;;;7.69;51.75;99824.89;1780054;79;21105;-60
2022/04/14 04:19:27;;;;;;;;;;;;;;;7.70;51.79;99826.61;1771756;80;21018;-61
2022/04/14 04:21:54;;;;;;;24.30;11.87;;;;;;;7.72;51.76;99829.98;1769231;79;22043;-60
2022/04/14 04:24:20;;;;;;;33.87;14.50;;;;;;;7.70;51.78;99821.42;1767047;79;21102;-60
2022/04/14 04:26:47;;;;;;;20.55;12.23;;;;;;;7.72;51.75;99824.79;1770534;80;21566;-60
2022/04/14 04:29:15;;;;;;;19.90;11.57;;;;;;;7.74;51.81;99824.30;1763187;79;21055;-60
2022/04/14 04:32:45;;;;;;;30.55;12.93;;;;;;;7.87;51.85;99822.56;1828773;75;23276;-60
2022/04/14 04:35:12;;;;;;;23.03;11.53;;;;;;;7.92;51.88;99818.06;1817358;78;20894;-60
2022/04/14 04:37:39;;;;;;;28.32;11.78;;;;;;;8.02;51.89;99815.09;1814000;77;21329;-60
2022/04/14 04:40:08;;;;;;;21.02;12.78;;;;;;;8.18;51.88;99811.96;1824273;76;20911;-60
2022/04/14 04:42:34;;;;;;;24.07;13.25;;;;;;;8.34;51.83;99813.53;1826327;78;20968;-60
2022/04/14 04:45:01;;;;;;;19.00;9.70;;;;;;;8.51;51.82;99812.48;1822804;78;20949;-60
2022/04/14 04:47:28;;;;;;;17.65;11.88;;;;;;;8.79;51.90;99802.33;1823036;78;20922;-60
2022/04/14 04:49:54;;;;;;;18.82;11.10;;;;;;;9.13;51.84;99799.23;1787412;79;21112;-60
2022/04/14 04:52:22;;;;;;;23.47;10.45;;;;;;;9.48;51.79;99804.33;1778694;79;21456;-60
2022/04/14 04:54:48;;;;;;;;;;;;;;;9.82;51.75;99802.91;1782417;79;21034;-61
2022/04/14 04:57:15;;;;;;;20.97;10.50;;;;;;;10.13;51.43;99802.42;1749609;81;20174;-60
2022/04/14 04:59:41;;;;;;;17.50;10.37;;;;;;;10.43;51.54;99805.46;1768296;79;20990;-61
2022/04/14 05:02:10;;;;;;;24.27;11.65;;;;;;;10.78;51.58;99795.14;1753238;81;22558;-61
2022/04/14 05:04:37;;;;;;;16.50;10.48;;;;;;;11.24;51.55;99795.58;1779590;79;21347;-61
2022/04/14 05:07:05;;;;;;;18.42;10.78;;;;;;;11.66;51.30;99789.13;1779927;79;21042;-61
2022/04/14 05:09:34;;;;;;;17.15;10.50;;;;;;;12.03;51.03;99778.11;1759441;81;21052;-62
2022/04/14 05:12:00;;;;;;;;;;;;;;;12.38;51.03;99781.93;1779699;79;21011;-62
2022/04/14 05:14:27;;;;;;;14.93;11.03;;;;;;;12.66;50.50;99782.14;1782877;79;21701;-61
2022/04/14 05:16:53;;;;;;;24.82;11.38;;;;;;;12.99;50.80;99779.43;1779566;79;21064;-62
2022/04/14 05:19:20;;;;;;;24.77;11.65;;;;;;;13.40;50.94;99783.27;1775648;79;20999;-62
2022/04/14 05:21:48;;;;;;;18.50;10.95;;;;;;;13.84;50.50;99782.44;1757722;81;21094;-63
2022/04/14 05:24:16;;;;;;;17.42;11.63;;;;;;;14.20;50.43;99779.81;1751724;81;20993;-62
2022/04/14 05:26:42;;;;;;;23.92;12.88;;;;;;;14.59;50.40;99778.31;1784071;79;21973;-62
2022/04/14 05:29:09;;;;;;;20.57;12.65;;;;;;;14.89;50.14;99779.47;1783404;78;21001;-62
2022/04/14 05:31:36;;;;;;;;;;;;;;;15.16;49.64;99774.22;1783153;79;21012;-62
2022/04/14 05:34:02;;;;;;;35.60;14.00;;;;;;;15.29;49.22;99777.73;1767453;79;20074;-62
2022/04/14 05:36:29;;;;;;;18.90;13.20;;;;;;;15.54;49.41;99777.40;1748313;81;21077;-62
2022/04/14 05:38:57;;;;;;;41.00;14.13;;;;;;;15.84;48.82;99784.58;1767836;79;21950;-62
2022/04/14 05:41:27;;;;;;;24.45;13.45;;;;;;;15.89;49.03;99773.27;1767761;79;21796;-62
2022/04/14 05:43:53;;;;;;;20.68;12.88;;;;;;;16.04;48.45;99774.47;1764352;79;21043;-62
2022/04/14 05:46:20;;;;;;;23.05;13.83;;;;;;;16.13;47.81;99773.82;1755226;81;21014;-62
2022/04/14 05:48:51;;;;;;;17.37;12.35;;;;;;;16.02;48.08;99778.98;1761654;79;21231;-62
2022/04/14 05:51:20;;;;;;;19.95;13.55;;;;;;;16.10;47.78;99783.25;1733798;81;21041;-62
2022/04/14 05:53:50;;;;;;;28.15;13.35;;;;;;;16.20;47.72;99783.00;1757447;80;20953;-62
2022/04/14 05:56:16;;;;;;;56.10;15.05;;;;;;;16.53;47.89;99776.31;1764073;80;21723;-62
2022/04/14 05:58:44;;;;;;;32.10;13.22;;;;;;;16.73;47.31;99767.81;1737004;81;20984;-62
2022/04/14 06:01:12;;;;;;;15.95;12.47;;;;;;;16.92;47.21;99777.08;1763389;79;21509;-63
2022/04/14 06:03:40;;;;;;;54.42;15.30;;;;;;;17.13;46.94;99772.84;1738064;81;21085;-62
2022/04/14 06:06:13;;;;;;;19.55;13.65;;;;;;;17.45;46.93;99775.74;1749861;80;20987;-62
2022/04/14 06:08:41;;;;;;;20.57;13.35;;;;;;;17.51;46.16;99771.80;1743027;81;21163;-62
2022/04/14 06:11:09;;;;;;;23.20;14.40;;;;;;;17.28;46.01;99775.30;1728492;81;20957;-62
2022/04/14 06:13:36;;;;;;;35.92;14.80;;;;;;;17.35;46.26;99778.70;1766643;80;21042;-63
2022/04/14 06:16:04;;;;;;;40.45;14.58;;;;;;;17.74;46.33;99782.42;1768043;79;21102;-63
2022/04/14 06:18:32;;;;;;;23.52;14.80;;;;;;;18.17;46.17;99771.21;1770973;80;21668;-62
2022/04/14 06:20:58;;;;;;;18.52;14.18;;;;;;;18.48;45.99;99782.85;1770043;80;21033;-63
2022/04/14 06:23:25;;;;;;;20.52;14.70;;;;;;;18.88;45.93;99777.91;1768899;80;28670;-63
2022/04/14 06:25:53;;;;;;;24.50;14.85;;;;;;;19.22;45.58;99773.83;1766654;79;21020;-63
2022/04/14 06:28:19;;;;;;;23.35;14.85;;;;;;;19.26;45.03;99771.27;1764930;80;21847;-63
2022/04/14 06:30:47;;;;;;;23.57;14.10;;;;;;;19.33;44.93;99772.45;1765536;80;21013;-62
2022/04/14 06:33:15;;;;;;;22.17;14.43;;;;;;;19.47;44.67;99770.47;1784897;78;21103;-63
2022/04/14 06:35:43;;;;;;;20.10;15.50;;;;;;;19.41;44.18;99768.69;1785556;79;21529;-61
2022/04/14 06:38:10;;;;;;;22.35;15.18;;;;;;;19.31;44.02;99769.09;1786013;79;21677;-61
2022/04/14 06:40:37;;;;;;;20.70;15.05;;;;;;;19.11;43.59;99767.25;1790244;78;21174;-61
2022/04/14 06:43:05;;;;;;;22.40;14.45;;;;;;;18.83;43.46;99770.82;1789662;79;21156;-63
2022/04/14 06:45:32;;;;;;;20.40;15.03;;;;;;;18.51;43.18;99775.55;1782685;79;21536;-61
2022/04/14 06:47:59;;;;;;;27.70;15.83;;;;;;;18.20;42.98;99774.94;1784121;79;21290;-62
2022/04/14 06:50:26;;;;;;;29.75;15.03;;;;;;;17.91;43.09;99766.16;1789697;79;21166;-62
2022/04/14 06:53:00;;;;;;;26.10;14.95;;;;;;;17.70;42.86;99762.47;1771239;80;22214;-62
2022/04/14 06:55:25;;;;;;;18.57;14.15;;;;;;;17.54;42.84;99761.01;1777584;80;21002;-62
2022/04/14 06:57:52;;;;;;;21.27;13.72;;;;;;;17.25;42.69;99762.34;1785829;79;21636;-62
2022/04/14 07:00:21;;;;;;;18.90;14.87;;;;;;;17.06;42.56;99763.72;1780907;79;20997;-63
2022/04/14 07:02:52;;;;;;;22.60;15.10;;;;;;;16.81;42.43;99770.42;1778947;79;20997;-61
2022/04/14 07:05:20;;;;;;;21.05;15.53;;;;;;;16.70;42.68;99764.56;1776732;79;21030;-61
2022/04/14 07:07:47;;;;;;;23.75;15.38;;;;;;;16.63;42.51;99756.23;1779565;79;20911;-62
2022/04/14 07:10:14;;;;;;;39.42;15.13;;;;;;;16.51;42.39;99758.44;1786997;79;21619;-61
2022/04/14 07:12:44;;;;;;;21.77;15.63;;;;;;;16.47;42.50;99754.36;1769470;79;21048;-64
2022/04/14 07:15:12;;;;;;;18.35;14.35;;;;;;;16.37;42.41;99752.83;1759606;80;21003;-63
2022/04/14 07:17:40;;;;;;;20.17;14.45;;;;;;;16.45;42.48;99754.93;1777910;79;21970;-63
2022/04/14 07:20:11;;;;;;;21.20;15.80;;;;;;;16.43;42.37;99747.13;1783405;79;21012;-61
2022/04/14 07:22:47;;;;;;;22.15;13.98;;;;;;;16.39;42.29;99750.94;1783153;79;20977;-61
2022/04/14 07:25:15;;;;;;;27.67;15.05;;;;;;;16.37;42.30;99744.09;1763107;79;21061;-61
2022/04/14 07:27:43;;;;;;;35.95;15.95;;;;;;;16.32;42.12;99741.77;1782847;79;20997;-62
2022/04/14 07:30:15;;;;;;;20.82;15.03;;;;;;;16.27;42.36;99744.75;1770539;79;21919;-61
2022/04/14 07:32:45;;;;;;;21.37;14.28;;;;;;;16.32;42.55;99738.66;1755104;81;20918;-62
2022/04/14 07:35:13;;;;;;;24.80;15.80;;;;;;;16.42;42.37;99739.34;1755627;81;21047;-61
2022/04/14 07:37:40;;;;;;;21.50;14.70;;;;;;;16.44;42.27;99740.05;1758937;80;21057;-61
2022/04/14 07:40:08;;;;;;;;;;;;;;;16.42;42.18;99739.34;1773282;79;21063;-61
2022/04/14 07:42:40;;;;;;;22.48;15.38;;;;;;;16.41;42.15;99746.41;1772429;79;21560;-61
2022/04/14 07:45:10;;;;;;;19.85;14.30;;;;;;;16.47;42.30;99747.77;1762677;81;21010;-61
2022/04/14 07:47:41;;;;;;;22.73;15.23;;;;;;;16.59;42.27;99744.24;1740138;80;21054;-61
2022/04/14 07:50:15;;;;;;;22.32;15.23;;;;;;;16.63;42.23;99737.78;1763415;80;21078;-61
2022/04/14 07:52:56;;;;;;;25.70;15.60;;;;;;;16.70;42.32;99736.40;1760974;81;21493;-61
2022/04/14 07:55:32;;;;;;;23.10;14.45;;;;;;;16.80;42.19;99738.39;1774609;79;21130;-61
2022/04/14 07:58:06;;;;;;;23.63;15.87;;;;;;;16.98;42.36;99730.47;1772806;79;21571;-61
2022/04/14 08:00:31;;;;;;;23.92;15.40;;;;;;;17.04;42.26;99733.96;1758779;79;20915;-62
2022/04/14 08:03:02;;;;;;;23.02;16.55;;;;;;;17.08;42.00;99732.77;1782886;79;21069;-61
2022/04/14 08:05:41;;;;;;;25.80;15.98;;;;;;;17.04;42.05;99730.00;1767820;79;21391;-61
2022/04/14 08:08:12;;;;;;;83.87;19.23;;;;;;;17.04;41.95;99728.69;1772840;79;21044;-62
2022/04/14 08:10:48;;;;;;;95.85;19.98;;;;;;;17.01;41.92;99734.19;1762925;80;20996;-61
2022/04/14 08:13:17;;;;;;;37.17;16.10;;;;;;;17.03;42.00;99734.93;1762709;79;21605;-60
2022/04/14 08:15:44;;;;;;;21.50;15.25;;;;;;;17.18;42.02;99739.05;1780068;79;21053;-61
2022/04/14 08:18:11;;;;;;;22.35;15.40;;;;;;;17.18;41.68;99735.09;1777427;78;20958;-62
2022/04/14 08:20:41;;;;;;;22.73;15.58;;;;;;;17.13;41.91;99733.27;1780336;79;26945;-61
2022/04/14 08:23:14;;;;;;;20.72;14.73;;;;;;;17.04;41.56;99730.00;1761484;81;21037;-61
2022/04/14 08:25:41;;;;;;;27.40;15.53;;;;;;;16.97;41.38;99727.44;1778862;78;20970;-61
2022/04/14 08:28:08;;;;;;;36.63;16.55;;;;;;;16.91;41.79;99730.54;1778297;79;21068;-60
2022/04/14 08:30:36;;;;;;;25.52;15.88;;;;;;;16.76;41.42;99728.07;1759362;80;21139;-60
2022/04/14 08:33:16;;;;;;;21.82;15.78;;;;;;;16.81;41.65;99729.55;1772537;79;20973;-62
2022/04/14 08:35:49;;;;;;;29.67;14.87;;;;;;;16.97;41.80;99730.08;1778522;79;20950;-62
2022/04/14 08:38:28;;;;;;;22.27;14.45;;;;;;;17.21;41.72;99736.19;1768198;79;20983;-62
2022/04/14 08:41:13;;;;;;;24.72;16.05;;;;;;;17.21;41.45;99733.55;1778390;79;21049;-61
2022/04/14 08:43:55;;;;;;;24.70;16.40;;;;;;;17.21;41.50;99736.19;1713975;81;21701;-61
2022/04/14 08:46:23;;;;;;;29.02;15.58;;;;;;;17.31;41.59;99738.12;1743505;81;22270;-62
2022/04/14 08:48:51;;;;;;;25.50;16.25;;;;;;;17.46;41.66;99739.63;1785289;79;21582;-61
2022/04/14 08:51:20;;;;;;;64.30;17.73;;;;;;;17.54;41.63;99738.57;1773699;79;21019;-62
2022/04/14 08:53:49;;;;;;;22.02;15.20;;;;;;;17.53;41.52;99742.18;1781167;79;21080;-63
2022/04/14 08:56:17;;;;;;;31.15;16.37;;;;;;;17.49;41.28;99742.03;1780734;79;21025;-62
2022/04/14 08:58:48;;;;;;;22.25;14.33;;;;;;;17.60;41.53;99736.78;1764696;79;21260;-62
2022/04/14 09:01:15;;;;;;;29.27;15.40;;;;;;;17.74;41.53;99732.25;1745270;81;20965;-65
2022/04/14 09:03:43;;;;;;;23.30;15.05;;;;;;;17.72;41.40;99735.48;1778286;79;20999;-62
2022/04/14 09:06:10;;;;;;;21.93;15.20;;;;;;;17.81;41.60;99741.39;1776046;79;20914;-65
2022/04/14 09:08:37;;;;;;;20.92;15.65;;;;;;;17.77;41.27;99739.93;1784000;79;21075;-65
2022/04/14 09:11:08;;;;;;;21.90;15.25;;;;;;;17.79;41.46;99751.27;1770699;79;21105;-61
2022/04/14 09:13:38;;;;;;;27.07;16.55;;;;;;;17.91;41.55;99747.66;1764832;79;21486;-63
2022/04/14 09:16:08;;;;;;;23.50;15.40;;;;;;;18.09;41.51;99747.56;1781924;79;20973;-62
2022/04/14 09:18:35;;;;;;;22.98;16.30;;;;;;;18.29;41.70;99753.09;1787941;78;21049;-62
2022/04/14 09:21:06;;;;;;;21.85;15.05;;;;;;;18.46;41.49;99756.55;1750017;81;20923;-61
2022/04/14 09:23:36;;;;;;;23.85;15.85;;;;;;;18.58;41.25;99756.54;1772671;78;21161;-61
2022/04/14 09:26:11;;;;;;;26.82;15.75;;;;;;;18.34;41.00;99753.55;1762777;78;71406;-63
2022/04/14 09:28:40;;;;;;;26.87;17.17;;;;;;;18.47;41.43;99757.39;1712710;82;21010;-63
2022/04/14 09:31:12;;;;;;;21.65;15.93;;;;;;;18.76;41.48;99761.23;1714523;82;21027;-63
2022/04/14 09:33:48;;;;;;;20.48;15.72;;;;;;;18.96;41.28;99746.84;1708060;82;21080;-64
2022/04/14 09:36:20;;;;;;;19.62;15.58;;;;;;;18.98;41.15;99745.75;1706183;82;22001;-62
2022/04/14 09:38:59;;;;;;;49.38;17.55;;;;;;;19.17;41.51;99747.73;1678578;83;21072;-63
2022/04/14 09:41:40;;;;;;;36.98;17.12;;;;;;;19.56;41.55;99745.86;1671388;84;21615;-63
2022/04/14 09:44:11;;;;;;;32.85;15.93;;;;;;;19.76;41.41;99750.33;1705645;83;21117;-61
2022/04/14 09:46:45;;;;;;;20.72;15.40;;;;;;;20.00;41.50;99749.22;1682243;84;20977;-62
2022/04/14 09:49:16;;;;;;;24.45;16.02;;;;;;;20.26;41.37;99749.60;1707323;82;21262;-62
2022/04/14 09:51:48;;;;;;;25.25;16.02;;;;;;;20.31;41.14;99742.09;1678071;84;21010;-62
2022/04/14 09:54:20;;;;;;;26.95;16.82;;;;;;;20.33;41.16;99740.98;1701587;83;21016;-62
2022/04/14 09:56:55;;;;;;;26.30;16.35;;;;;;;20.28;41.05;99739.22;1680277;83;21096;-62
2022/04/14 09:59:25;;;;;;;26.50;17.17;;;;;;;20.28;40.93;99747.67;1705930;83;21033;-62
2022/04/14 10:02:14;;;;;;;49.85;17.57;;;;;;;20.22;40.39;99749.05;1679041;84;21104;-61
2022/04/14 10:04:45;;;;;;;78.85;19.90;;;;;;;20.25;41.05;99743.47;1697159;82;21616;-62
2022/04/14 10:07:33;;;;;;;35.78;18.32;;;;;;;20.48;40.93;99741.94;1677766;84;21041;-62
2022/04/14 10:10:04;;;;;;;20.27;16.27;;;;;;;20.63;40.99;99736.61;1652735;84;21563;-62
2022/04/14 10:12:32;;;;;;;27.32;15.90;;;;;;;20.90;40.89;99736.46;1679537;83;21064;-63
2022/04/14 10:15:10;;;;;;;24.37;16.25;;;;;;;20.87;40.66;99733.59;1680274;83;21298;-62
2022/04/14 10:17:39;;;;;;;22.85;15.25;;;;;;;20.93;40.36;99734.86;1660453;85;20977;-63
2022/04/14 10:20:14;;;;;;;20.00;16.15;;;;;;;20.88;40.40;99737.91;1682050;83;21041;-63
2022/04/14 10:22:39;;;;;;;21.35;15.48;;;;;;;20.95;40.75;99732.91;1682252;83;21100;-62
2022/04/14 10:25:08;;;;;;;22.05;14.80;;;;;;;21.02;40.08;99735.34;1681306;83;21088;-63
2022/04/14 10:27:37;;;;;;;19.62;12.23;;;;;;;20.81;40.29;99740.78;1681495;84;21011;-63
2022/04/14 10:30:07;;;;;;;13.45;9.93;;;;;;;20.43;40.08;99737.52;1680950;83;21060;-62
2022/04/14 10:32:36;;;;;;;15.90;10.63;;;;;;;20.04;40.28;99745.32;1682140;83;21080;-62
2022/04/14 10:35:08;;;;;;;17.07;9.98;;;;;;;19.50;40.12;99746.38;1680433;85;21083;-61
2022/04/14 10:37:40;;;;;;;16.77;11.40;;;;;;;18.87;40.31;99751.08;1679486;84;21653;-61
2022/04/14 10:40:10;;;;;;;16.40;9.85;;;;;;;18.51;40.65;99746.45;1680975;84;21082;-62
2022/04/14 10:42:38;;;;;;;18.10;8.28;;;;;;;18.20;41.13;99756.44;1655934;85;21051;-62
2022/04/14 10:45:24;;;;;;;17.55;9.28;;;;;;;18.28;41.55;99753.55;1680912;84;21071;-62
2022/04/14 10:47:58;;;;;;;17.67;8.78;;;;;;;18.45;41.58;99752.20;1653233;85;21110;-62
2022/04/14 10:50:33;;;;;;;11.22;7.62;;;;;;;18.26;41.97;99757.27;1660112;85;21641;-63
2022/04/14 10:53:13;;;;;;;14.45;8.25;;;;;;;18.23;42.51;99750.45;1683181;83;21053;-62
2022/04/14 10:55:44;;;;;;;13.35;7.58;;;;;;;18.07;42.45;99742.87;1680241;83;21052;-63
2022/04/14 10:58:46;;;;;;;12.63;7.72;;;;;;;18.21;42.84;99750.20;1682086;85;20977;-63
2022/04/14 11:01:13;;;;;;;13.83;7.97;;;;;;;18.11;43.19;99746.94;1681276;83;21032;-64
2022/04/14 11:03:55;;;;;;;10.68;7.60;;;;;;;17.84;43.59;99753.05;1655618;84;21059;-63
2022/04/14 11:06:47;;;;;;;9.68;7.87;;;;;;;17.59;43.60;99753.59;1682209;83;21360;-63
2022/04/14 11:09:52;;;;;;;13.20;8.55;;;;;;;17.51;44.25;99750.69;1682359;83;21016;-63
2022/04/14 11:12:33;;;;;;;13.50;8.38;;;;;;;17.33;44.45;99754.70;1679148;84;21113;-63
2022/04/14 11:15:06;;;;;;;13.05;7.58;;;;;;;17.42;44.82;99756.19;1682134;84;21017;-62
2022/04/14 11:17:42;;;;;;;15.63;7.97;;;;;;;17.42;46.49;99760.59;1682443;84;21052;-61
2022/04/14 11:20:37;;;;;;;8.95;6.53;;;;;;;17.26;45.73;99756.13;1680209;83;21112;-62
2022/04/14 11:23:21;;;;;;;13.58;7.40;;;;;;;17.25;45.67;99746.51;1679937;83;21589;-62
2022/04/14 11:26:03;;;;;;;22.75;8.23;;;;;;;17.20;45.97;99747.70;1680004;83;21001;-62
2022/04/14 11:28:33;;;;;;;27.77;8.88;;;;;;;17.32;46.83;99753.02;1680802;83;21100;-62
2022/04/14 11:31:23;;;;;;;20.15;8.88;;;;;;;17.15;46.69;99743.24;1681795;83;21585;-62
2022/04/14 11:33:53;;;;;;;15.98;8.25;;;;;;;17.13;46.71;99743.83;1681106;84;21220;-62
2022/04/14 11:36:27;;;;;;;13.55;7.83;;;;;;;17.05;47.21;99737.44;1680933;83;21013;-62
2022/04/14 11:39:09;;;;;;;13.70;7.60;;;;;;;17.10;47.30;99733.98;1679587;84;21016;-63